Fedhaven, Florida
Current Conditions -  °F | °C
As of 7:47 AM on Tuesday 21 Oct 2014 (Local Time) from KBOW Reporting Station
Broken Clouds Broken Clouds  
Wind Chill: 66°   Ceiling: 6500
Heat Index: 66°   Visibility: 7mi
Dew Point: 66°   Wind: 0mph
Humidity: 100%   Direction: NA
Pressure: 29.97"   Gusts: NA
Location:  27.86°N, 81.41°W
Report Text: KBOW 211147Z 00000KT 7SM BKN065 19/19 A2997
Loading
Personal Weather Stations






























Interactive Weather Map New forecast layout! Learn more

10-Day Weather Forecast

Advertisements
Track Severe Weather on mobile